Cle Elum, WA (98922)

7:33 AM PDT on September 04, 2015 (GMT -0700)
Cle Elum-Roslyn High School | | Change Station
CLOSE
Current Station
Personal Weather Station
Location: Cle Elum, WA
Elevation: 2107 ft
Nearby Weather Stations

Elev 2107 ft 47.20 °N, 120.97 °W | Updated 18 minutes ago

Partly Cloudy
Partly Cloudy
37.2 °F
Feels Like 37 °F
N
0.0
Wind Variable Wind from WSW

Today
High -- | Low -- °F
--% Chance of Precip.
Yesterday
High -- | Low -- °F
Precip. -- in
6:26 AM 7:38 PM
Waning Gibbous, 59% visible
Pressure 29.96 in
Visibility 10.0 miles
Clouds Clear
Windchill 37 °F
Dew Point 35 °F
Humidity 91%
Rainfall 0.00 in
Snow Depth Not available.
UV 0.0 out of 12
Pollen 3.90 out of 12
Air Quality Not available.
Flu Activity Not available.
METAR KELN 041353Z AUTO 00000KT 10SM CLR 04/00 A2995 RMK AO2 SLP145 T00390000
Pressure 29.96 in
Visibility 10.0 miles
Clouds Clear
Windchill 37 °F
Dew Point 35 °F
Humidity 91%
Rainfall 0.00 in
Snow Depth Not available.
UV 0.0 out of 12
Pollen 3.90 out of 12
Air Quality Not available.
Flu Activity Not available.
METAR KELN 041353Z AUTO 00000KT 10SM CLR 04/00 A2995 RMK AO2 SLP145 T00390000

10-Day Weather Forecast

×

Almanac

Astronomy

Sep. 04, 2015 Rise Set
Actual Time
Civil Twilight
Nautical Twilight
Astronomical Twilight
Moon
Length of Visible Light
Length of Day
Tomorrow will be .
, % of the Moon is Illuminated

Today's Extremes

State Highs State Lows

Community

WunderPhotos

Upload Photos

1,852,186 photos uploaded!

WunderBlogs® & News

Nearby

Air Quality

  Air Quality AQ Index Pollutant
Not available.

Snow Depth

Station Depth Elevation

Earthquake Activity

City Distance Mag. Time & Date
Minimum magnitude displayed is 2.5.

Coastal Water Temperatures

Place Temperature

Stations

Nearby Weather Stations

Station Location Temp. Windchill Dew Point Humidity Wind Precip. Elev Updated Type